createdAt,value
2019-01-18T00:00:17.109Z,2.80
2019-01-18T00:06:17.949Z,3.30
2019-01-18T00:09:08.127Z,3.13
2019-01-18T00:11:39.132Z,3.30
2019-01-18T00:14:29.124Z,2.70
2019-01-18T00:17:00.047Z,3.50
2019-01-18T00:19:30.935Z,3.40
2019-01-18T00:28:25.407Z,3.70
2019-01-18T00:30:56.437Z,3.63
2019-01-18T00:36:17.198Z,3.43
2019-01-18T00:39:07.539Z,2.87
2019-01-18T00:41:38.434Z,2.97
2019-01-18T00:44:28.463Z,3.00
2019-01-18T00:50:55.105Z,2.10
2019-01-18T00:53:26.075Z,2.47
2019-01-18T00:55:56.933Z,2.60
2019-01-18T00:58:47.166Z,2.33
2019-01-18T01:01:18.189Z,1.90
2019-01-18T01:04:08.349Z,1.87
2019-01-18T01:07:17.550Z,2.20
2019-01-18T01:10:47.421Z,2.30
2019-01-18T01:13:18.455Z,2.20
2019-01-18T01:15:49.461Z,2.70
2019-01-18T01:18:39.598Z,2.70
2019-01-18T01:21:29.774Z,2.90
2019-01-18T01:24:19.771Z,2.83
2019-01-18T01:32:55.314Z,3.10
2019-01-18T01:35:45.550Z,3.07
2019-01-18T01:38:35.776Z,3.90
2019-01-18T01:41:06.699Z,3.03
2019-01-18T01:43:56.718Z,3.50
2019-01-18T01:46:46.906Z,2.90
2019-01-18T01:49:37.111Z,3.53
2019-01-18T01:52:08.063Z,3.10
2019-01-18T01:54:39.130Z,3.10
2019-01-18T01:57:29.310Z,3.20
2019-01-18T02:00:19.501Z,3.43
2019-01-18T02:02:50.569Z,3.60
2019-01-18T02:05:21.574Z,3.23
2019-01-18T02:07:52.612Z,3.53
2019-01-18T02:10:42.881Z,3.23
2019-01-18T02:13:33.146Z,3.30
2019-01-18T02:16:04.494Z,3.23
2019-01-18T02:21:38.406Z,3.10
2019-01-18T02:24:28.614Z,3.47
2019-01-18T02:27:18.717Z,3.43
2019-01-18T02:30:48.605Z,3.50
2019-01-18T02:33:19.489Z,3.20
2019-01-18T02:36:28.684Z,3.50
2019-01-18T02:38:59.576Z,3.60
2019-01-18T02:41:49.654Z,3.50
2019-01-18T02:47:54.669Z,3.50
2019-01-18T02:53:55.317Z,3.03
2019-01-18T02:56:45.627Z,3.07
2019-01-18T02:59:16.601Z,3.40
2019-01-18T03:02:06.789Z,3.10
2019-01-18T03:04:57.151Z,3.37
2019-01-18T03:07:28.098Z,2.50
2019-01-18T03:09:59.119Z,2.67
2019-01-18T03:12:49.268Z,2.60
2019-01-18T03:15:39.438Z,2.33
2019-01-18T03:18:10.458Z,3.10
2019-01-18T03:20:41.394Z,2.40
2019-01-18T03:23:12.280Z,2.83
2019-01-18T03:25:43.216Z,2.60
2019-01-18T03:28:14.204Z,2.60
2019-01-18T03:31:04.473Z,2.90
2019-01-18T03:37:30.302Z,2.73
2019-01-18T03:40:20.638Z,2.30
2019-01-18T03:43:10.879Z,2.30
2019-01-18T03:46:01.021Z,3.00
2019-01-18T03:48:51.138Z,2.97
2019-01-18T03:52:00.293Z,2.50
2019-01-18T03:54:31.184Z,2.60
2019-01-18T03:57:02.049Z,2.70
2019-01-18T03:59:33.045Z,3.00
2019-01-18T04:05:54.274Z,2.80
2019-01-18T04:08:25.155Z,2.80
2019-01-18T04:11:15.267Z,3.03
2019-01-18T04:13:46.344Z,3.10
2019-01-18T04:19:27.673Z,2.97
2019-01-18T04:21:58.702Z,2.70
2019-01-18T04:28:03.812Z,2.70
2019-01-18T04:30:54.085Z,3.33
2019-01-18T04:33:25.051Z,3.20
2019-01-18T04:36:15.147Z,3.10
2019-01-18T04:39:45.042Z,3.17
2019-01-18T04:42:35.225Z,3.20
2019-01-18T04:45:46.036Z,3.10
2019-01-18T04:48:17.008Z,3.23
2019-01-18T04:51:07.191Z,3.60
2019-01-18T04:53:57.313Z,3.40
2019-01-18T04:56:47.562Z,3.50
2019-01-18T05:06:27.654Z,3.40
2019-01-18T05:09:17.667Z,3.07
2019-01-18T05:12:07.863Z,3.57
2019-01-18T05:14:38.762Z,3.27
2019-01-18T05:17:28.877Z,3.50
2019-01-18T05:20:18.989Z,3.73
2019-01-18T05:23:29.871Z,3.97
2019-01-18T05:29:09.733Z,3.70
2019-01-18T05:31:40.660Z,3.53
2019-01-18T05:34:11.611Z,3.30
2019-01-18T05:37:41.488Z,3.93
2019-01-18T05:40:52.288Z,3.97
2019-01-18T05:43:23.301Z,4.17
2019-01-18T05:46:13.512Z,4.83
2019-01-18T05:52:19.913Z,3.73
2019-01-18T05:55:09.990Z,4.13
2019-01-18T05:57:41.039Z,3.70
2019-01-18T06:07:03.303Z,3.77
2019-01-18T06:13:08.507Z,3.80
2019-01-18T06:15:40.519Z,3.73
2019-01-18T06:18:50.371Z,4.40
2019-01-18T06:21:21.535Z,4.00
2019-01-18T06:24:32.209Z,3.53
2019-01-18T06:27:41.431Z,4.50
2019-01-18T06:33:47.014Z,4.07
2019-01-18T06:39:46.004Z,4.17
2019-01-18T06:42:16.868Z,4.00
2019-01-18T06:45:07.057Z,4.53
2019-01-18T06:47:57.331Z,4.83
2019-01-18T06:50:47.318Z,4.33
2019-01-18T06:53:56.598Z,4.23
2019-01-18T06:56:46.825Z,4.10
2019-01-18T06:59:17.859Z,4.30
2019-01-18T07:08:31.908Z,4.27
2019-01-18T07:11:22.066Z,5.00
2019-01-18T07:14:12.143Z,4.67
2019-01-18T07:17:21.278Z,5.03
2019-01-18T07:20:11.290Z,4.57
2019-01-18T07:26:31.032Z,3.73
2019-01-18T07:29:21.233Z,4.33
2019-01-18T07:31:53.737Z,3.60
2019-01-18T07:35:02.966Z,4.37
2019-01-18T07:37:53.087Z,4.63
2019-01-18T07:40:24.049Z,4.57
2019-01-18T07:43:34.840Z,4.33
2019-01-18T07:46:25.022Z,4.50
2019-01-18T07:49:15.180Z,4.43
2019-01-18T07:52:45.055Z,4.40
2019-01-18T07:55:35.269Z,4.40
2019-01-18T08:01:21.862Z,4.67
2019-01-18T08:04:45.553Z,3.80
2019-01-18T08:07:35.647Z,4.10
2019-01-18T08:10:46.455Z,3.97
2019-01-18T08:13:36.646Z,3.83
2019-01-18T08:16:07.607Z,4.30
2019-01-18T08:18:57.771Z,3.50
2019-01-18T08:22:07.070Z,3.60
2019-01-18T08:24:38.137Z,3.80
2019-01-18T08:27:28.415Z,3.50
2019-01-18T08:30:39.265Z,3.63
2019-01-18T08:33:29.483Z,3.53
2019-01-18T08:36:40.281Z,3.63
2019-01-18T08:39:11.167Z,4.03
2019-01-18T08:42:20.424Z,3.90
2019-01-18T08:45:48.997Z,4.27
2019-01-18T08:48:39.250Z,4.13
2019-01-18T08:51:10.284Z,3.50
2019-01-18T08:54:19.571Z,4.57
2019-01-18T08:57:09.659Z,4.30
2019-01-18T09:07:09.059Z,4.33
2019-01-18T09:09:41.723Z,4.13
2019-01-18T09:12:12.610Z,4.27
2019-01-18T09:18:58.682Z,3.43
2019-01-18T09:21:48.977Z,3.37
2019-01-18T09:24:19.976Z,3.40
2019-01-18T09:26:50.913Z,2.97
2019-01-18T09:29:21.857Z,3.10
2019-01-18T09:35:21.185Z,2.80
2019-01-18T09:38:17.566Z,3.07
2019-01-18T09:41:22.369Z,2.80
2019-01-18T09:44:12.577Z,3.10
2019-01-18T09:47:02.698Z,3.07
2019-01-18T09:49:52.767Z,2.90
2019-01-18T09:52:23.705Z,4.17
2019-01-18T10:01:29.466Z,3.30
2019-01-18T10:04:00.415Z,3.17
2019-01-18T10:07:09.553Z,3.57
2019-01-18T10:09:59.656Z,2.90
2019-01-18T10:12:49.956Z,3.03
2019-01-18T10:16:00.782Z,3.50
2019-01-18T10:18:50.865Z,2.73
2019-01-18T10:21:41.007Z,3.40
2019-01-18T10:24:11.947Z,3.10
2019-01-18T10:27:23.978Z,3.07
2019-01-18T10:30:51.162Z,2.43
2019-01-18T10:33:22.169Z,2.10
2019-01-18T10:36:12.413Z,2.70
2019-01-18T10:39:22.262Z,2.30
2019-01-18T10:41:53.212Z,2.10
2019-01-18T10:48:18.301Z,2.13
2019-01-18T10:51:27.796Z,2.50
2019-01-18T11:00:49.022Z,3.10
2019-01-18T11:03:38.946Z,1.97
2019-01-18T11:06:49.571Z,2.10
2019-01-18T11:10:18.388Z,1.97
2019-01-18T11:13:08.590Z,2.07
2019-01-18T11:15:58.848Z,2.00
2019-01-18T11:18:48.819Z,2.00
2019-01-18T11:21:19.776Z,2.07
2019-01-18T11:29:55.215Z,2.17
2019-01-18T11:32:26.164Z,2.07
2019-01-18T11:34:57.133Z,1.90
2019-01-18T11:37:29.670Z,1.57
2019-01-18T11:46:25.927Z,2.10
2019-01-18T11:49:35.078Z,1.70
2019-01-18T11:52:25.292Z,2.17
2019-01-18T11:55:15.422Z,2.07
2019-01-18T11:58:05.441Z,1.77
2019-01-18T12:00:56.927Z,2.07
2019-01-18T12:03:47.132Z,1.90
2019-01-18T12:09:33.072Z,2.03
2019-01-18T12:12:25.479Z,1.60
2019-01-18T12:15:35.763Z,1.63
2019-01-18T12:18:27.671Z,1.70
2019-01-18T12:24:53.359Z,1.70
2019-01-18T12:27:24.363Z,1.70
2019-01-18T12:30:15.213Z,1.97
2019-01-18T12:33:25.855Z,2.13
2019-01-18T12:39:47.441Z,1.70
2019-01-18T12:45:33.548Z,1.80
2019-01-18T12:48:44.450Z,2.10
2019-01-18T12:51:15.707Z,1.60
2019-01-18T12:54:05.944Z,1.73
2019-01-18T12:56:56.058Z,1.80
2019-01-18T13:02:57.073Z,1.87
2019-01-18T13:06:08.029Z,1.63
2019-01-18T13:08:58.100Z,2.40
2019-01-18T13:11:48.433Z,2.10
2019-01-18T13:14:57.989Z,2.53
2019-01-18T13:18:27.929Z,3.27
2019-01-18T13:21:39.258Z,3.63
2019-01-18T13:24:50.425Z,2.20
2019-01-18T13:28:20.875Z,2.30
2019-01-18T13:30:53.487Z,2.30
2019-01-18T13:33:24.463Z,2.13
2019-01-18T13:36:15.118Z,2.23
2019-01-18T13:39:25.959Z,2.83
2019-01-18T13:45:52.400Z,2.13
2019-01-18T13:48:42.519Z,2.10
2019-01-18T13:51:32.557Z,2.20
2019-01-18T13:54:43.413Z,2.80
2019-01-18T14:04:44.787Z,2.07
2019-01-18T14:11:10.579Z,1.60
2019-01-18T14:14:00.655Z,6.07
2019-01-18T14:16:33.284Z,2.17
2019-01-18T14:19:23.443Z,1.87
2019-01-18T14:22:13.717Z,1.60
2019-01-18T14:25:22.880Z,1.80
2019-01-18T14:28:13.004Z,1.50
2019-01-18T14:31:03.140Z,1.50
2019-01-18T14:33:34.116Z,1.50
2019-01-18T14:36:14.660Z,1.50
2019-01-18T14:39:23.492Z,1.20
2019-01-18T14:42:13.588Z,1.37
2019-01-18T14:48:34.954Z,1.40
2019-01-18T14:51:25.198Z,1.50
2019-01-18T14:54:37.628Z,1.43
2019-01-18T14:57:27.834Z,1.50
2019-01-18T14:59:58.932Z,3.53
2019-01-18T15:03:08.389Z,3.10
2019-01-18T15:15:58.618Z,1.77
2019-01-18T15:19:07.833Z,1.83
2019-01-18T15:21:59.596Z,2.10
2019-01-18T15:24:49.597Z,2.17
2019-01-18T15:27:41.424Z,2.20
2019-01-18T15:30:52.225Z,2.47
2019-01-18T15:34:03.105Z,2.07
2019-01-18T15:36:53.232Z,2.13
2019-01-18T15:39:24.192Z,2.30
2019-01-18T15:41:56.836Z,2.67
2019-01-18T15:44:29.438Z,2.70
2019-01-18T15:47:21.296Z,2.50
2019-01-18T15:50:31.536Z,3.03
2019-01-18T15:59:53.797Z,3.00
2019-01-18T16:03:03.239Z,3.13
2019-01-18T16:05:53.749Z,3.13
2019-01-18T16:08:24.877Z,3.07
2019-01-18T16:14:07.870Z,3.30
2019-01-18T16:16:57.945Z,3.27
2019-01-18T16:19:30.480Z,3.17
2019-01-18T16:22:03.014Z,3.10
2019-01-18T16:24:53.249Z,3.47
2019-01-18T16:34:12.789Z,3.50
2019-01-18T16:36:43.836Z,4.07
2019-01-18T16:39:53.081Z,4.27
2019-01-18T16:42:43.449Z,4.50
2019-01-18T16:45:52.585Z,4.30
2019-01-18T16:51:39.973Z,4.67
2019-01-18T16:54:10.832Z,4.53
2019-01-18T16:57:01.409Z,4.80
2019-01-18T16:59:53.319Z,5.33
2019-01-18T17:02:43.541Z,6.07
2019-01-18T17:05:14.567Z,5.90
2019-01-18T17:08:04.784Z,6.13
2019-01-18T17:11:14.214Z,6.20
2019-01-18T17:14:04.401Z,6.20
2019-01-18T17:17:13.721Z,6.50
2019-01-18T17:20:05.554Z,6.93
2019-01-18T17:22:36.515Z,8.73
2019-01-18T17:25:26.545Z,6.87
2019-01-18T17:28:18.369Z,11.93
2019-01-18T17:30:50.989Z,9.80
2019-01-18T17:36:51.745Z,10.10
2019-01-18T17:40:04.150Z,11.77
2019-01-18T17:43:14.957Z,10.60
2019-01-18T17:46:25.817Z,11.80
2019-01-18T17:49:36.643Z,12.40
2019-01-18T17:52:49.069Z,12.27
2019-01-18T17:55:59.856Z,12.33
2019-01-18T17:59:10.674Z,11.47
2019-01-18T18:02:20.192Z,11.20
2019-01-18T18:05:31.467Z,11.27
2019-01-18T18:08:44.016Z,11.90
2019-01-18T18:11:54.846Z,13.47
2019-01-18T18:15:04.383Z,15.97
2019-01-18T18:18:15.219Z,16.77
2019-01-18T18:21:24.805Z,15.13
2019-01-18T18:24:35.648Z,15.90
2019-01-18T18:27:46.556Z,16.90
2019-01-18T18:30:57.526Z,16.83
2019-01-18T18:34:08.464Z,16.10
2019-01-18T18:37:38.438Z,13.97
2019-01-18T18:40:49.287Z,15.77
2019-01-18T18:44:00.168Z,12.07
2019-01-18T18:47:11.040Z,15.10
2019-01-18T18:50:20.543Z,12.03
2019-01-18T18:53:30.050Z,12.33
2019-01-18T18:56:39.888Z,12.53
2019-01-18T18:59:49.427Z,14.60
2019-01-18T19:03:00.287Z,11.30
2019-01-18T19:06:10.029Z,10.57
2019-01-18T19:12:36.001Z,13.10
2019-01-18T19:15:45.467Z,13.27
2019-01-18T19:18:56.328Z,14.40
2019-01-18T19:22:24.886Z,14.60
2019-01-18T19:25:53.482Z,16.00
2019-01-18T19:29:04.284Z,16.87
2019-01-18T19:32:15.121Z,18.33
2019-01-18T19:35:25.970Z,19.23
2019-01-18T19:38:36.820Z,18.27
2019-01-18T19:41:46.310Z,18.23
2019-01-18T19:44:55.963Z,18.43
2019-01-18T19:48:06.867Z,18.50
2019-01-18T19:51:16.360Z,19.50
2019-01-18T19:54:27.200Z,18.57
2019-01-18T19:57:38.088Z,19.23
2019-01-18T20:00:48.974Z,18.70
2019-01-18T20:03:58.446Z,18.17
2019-01-18T20:07:09.289Z,20.03
2019-01-18T20:10:18.891Z,18.13
2019-01-18T20:13:29.781Z,17.00
2019-01-18T20:16:40.652Z,17.27
2019-01-18T20:19:50.217Z,14.87
2019-01-18T20:23:01.170Z,16.60
2019-01-18T20:26:12.021Z,14.70
2019-01-18T20:29:22.865Z,14.47
2019-01-18T20:32:51.445Z,14.20
2019-01-18T20:36:00.998Z,15.40
2019-01-18T20:39:11.855Z,14.40
2019-01-18T20:42:22.728Z,15.63
2019-01-18T20:45:33.593Z,14.10
2019-01-18T20:49:02.154Z,18.90
2019-01-18T20:52:13.422Z,21.23
2019-01-18T20:55:24.577Z,15.60
2019-01-18T20:58:07.527Z,16.10
2019-01-18T21:01:18.349Z,16.23
2019-01-18T21:04:33.084Z,16.00
2019-01-18T21:08:18.765Z,16.00
2019-01-18T21:11:29.836Z,15.90
2019-01-18T21:15:20.416Z,16.53
2019-01-18T21:22:25.359Z,14.87
2019-01-18T21:25:53.943Z,24.47
2019-01-18T21:29:03.489Z,16.57
2019-01-18T21:32:14.357Z,16.33
2019-01-18T21:35:23.991Z,15.50
2019-01-18T21:38:54.391Z,13.60
2019-01-18T21:42:43.903Z,14.47
2019-01-18T21:45:53.438Z,13.97
2019-01-18T21:49:02.979Z,13.87
2019-01-18T21:52:12.509Z,12.63
2019-01-18T21:55:23.409Z,13.67
2019-01-18T21:58:33.027Z,13.67
2019-01-18T22:01:42.552Z,13.33
2019-01-18T22:04:52.051Z,13.53
2019-01-18T22:08:03.642Z,10.93
2019-01-18T22:10:37.638Z,11.20
2019-01-18T22:13:48.510Z,10.97
2019-01-18T22:16:59.475Z,11.27
2019-01-18T22:20:28.167Z,11.23
2019-01-18T22:23:37.647Z,13.60
2019-01-18T22:26:48.695Z,10.57
2019-01-18T22:29:59.768Z,11.17
2019-01-18T22:33:10.731Z,8.87
2019-01-18T22:36:20.251Z,9.17
2019-01-18T22:39:30.026Z,7.90
2019-01-18T22:42:39.524Z,8.07
2019-01-18T22:45:49.062Z,8.63
2019-01-18T22:48:58.543Z,8.90
2019-01-18T22:52:09.381Z,9.40
2019-01-18T22:55:18.856Z,9.93
2019-01-18T22:58:28.369Z,8.23
2019-01-18T23:01:37.855Z,9.10
2019-01-18T23:04:55.238Z,8.87
2019-01-18T23:08:38.270Z,8.77
2019-01-18T23:11:49.166Z,10.27
2019-01-18T23:14:59.986Z,8.63
2019-01-18T23:18:28.530Z,8.80
2019-01-18T23:21:39.361Z,9.80
2019-01-18T23:24:50.248Z,8.23
2019-01-18T23:28:01.014Z,8.87
2019-01-18T23:31:11.820Z,8.97
2019-01-18T23:34:21.300Z,8.20
2019-01-18T23:37:49.877Z,7.87
2019-01-18T23:40:59.539Z,8.37
2019-01-18T23:44:09.051Z,12.80
2019-01-18T23:47:19.872Z,9.10
2019-01-18T23:50:29.380Z,8.30
2019-01-18T23:53:44.269Z,8.23
2019-01-18T23:57:29.686Z,8.50
